Saint-Simeon, Canada
Current Conditions -  °F | °C
As of 12:00 PM on Thursday 27 Nov 2014 (Local Time) from CYBG Reporting Station
Broken Clouds Broken Clouds  
Wind Chill:   Ceiling: 24000
Heat Index: 21°   Visibility: 25mi
Dew Point: 16°   Wind: 13mph
Humidity: 80%   Direction: 270°W
Pressure: 30.01"   Gusts: NA
Location:  47.85°N, 69.88°W
Report Text: CYBG 271700Z 27011KT 25SM SCT020 BKN240 M06/M09 A3001 RMK SC3CI1 SLP173
Loading
Personal Weather Stations






























Interactive Weather Map New forecast layout! Learn more

10-Day Weather Forecast

Advertisements
Track Severe Weather on mobile